Tiempo atmosférico en la estación meteorológica de Palma, Puerto, Illes Balears (3 m.)



Fecha
DESCASC
Temp. máxima en grados centígrados (hora)
DESCASC
Temp. mínima en grados centígrados (hora)
DESCASC
Temp. media en grados centígrados
DESCASC
Racha de viento máxima en m/sg (hora)
DESCASC
Velocidad máxima media en intervalos de 10 minutos(hora)
DESCASC
Precipitaciones diarias en mm
DESCASC
Precipitaciones de 00:00 a 06:00 en mm
DESCASC
Precipitaciones de 06:00 a 12:00 en mm
DESCASC
Precipitaciones de 12:00 a 18:00 en mm
DESCASC
Precipitaciones de 18:00 a 24:00 en mm
DESCASC
24-04-2019 18.9 (13:50) 13.9 (00:00) 16.4 11.94 (03:20) 6.67 (02:00) 1.8 1.8 0 0 0
17-05-2019 20.6 (11:10) 15.6 (03:10) 18.1 16.67 (15:00) 6.11 (12:00) 0 0 0 0 0
15-05-2019 21.2 (15:40) 13.6 (00:00) 17.4 10.28 (19:50) 6.11 (19:20) 0 0 0 0 0
05-05-2019 18.8 (11:40) 13.7 (00:00) 16.2 11.11 (07:20) 6.11 (07:30) 0 0 0 0 0
11-05-2019 26.4 (11:30) 17.1 (00:00) 21.8 10.83 (21:00) 5.56 (21:00) 0 0 0 0 0
25-04-2019 17.6 (11:30) 15.4 (00:00) 16.5 8.89 (14:10) 5.28 (14:10) 0 0 0 0 0
08-05-2019 21.7 (23:40) 16.4 (00:00) 19.1 8.89 (21:20) 5.28 (12:10) 0 0 0 0 0
09-05-2019 24.3 (14:30) 17.7 (00:00) 21 15.28 (01:20) 5 (09:00) 0 0 0 0 0
23-04-2019 18.5 (13:00) 14.4 (00:00) 16.4 9.72 (23:59) 5 (17:20) 0.1 0.1 0 0 0
06-05-2019 18.5 (11:10) 12.3 (00:00) 15.4 7.5 (16:50) 4.72 (16:50) 0 0 0 0 0
12-05-2019 23.3 (16:20) 14.7 (00:00) 19 9.72 (13:40) 4.72 (13:30) 0 0 0 0 0
26-04-2019 21.9 (13:30) 13.5 (00:00) 17.7 8.61 (17:40) 4.72 (17:20) 0 0 0 0 0
29-04-2019 18.8 (10:30) 13.5 (00:00) 16.1 7.78 (15:00) 4.44 (15:00) 0 0 0 0 0
19-05-2019 21.2 (14:50) 14.6 (05:20) 17.9 9.17 (13:20) 4.44 (08:50) 0 0 0 0 0
03-05-2019 21.4 (11:50) 12.6 (00:00) 17 6.67 (18:00) 4.17 (17:50) 8.7 0 0 0 8.7
30-04-2019 18.8 (14:00) 12.6 (00:00) 15.7 7.22 (17:30) 4.17 (17:30) 0 0 0 0 0
10-05-2019 26.3 (13:50) 16.5 (00:00) 21.4 8.33 (13:20) 4.17 (13:20) 0 0 0 0 0
28-04-2019 18.9 (12:20) 11.5 (00:00) 15.2 7.22 (16:10) 4.17 (16:10) 0 0 0 0 0
14-05-2019 24.2 (14:50) 13.2 (00:00) 18.7 8.61 (10:10) 4.17 (06:20) 0 0 0 0 0
27-04-2019 23.6 (15:40) 11 (00:00) 17.3 9.44 (15:10) 4.17 (14:10) 0 0 0 0 0
16-05-2019 19.6 (14:00) 13.2 (00:00) 16.4 6.67 (18:40) 4.17 (17:50) 0 0 0 0 0
02-05-2019 20.7 (13:30) 15 (02:40) 17.9 6.11 (19:00) 3.89 (19:10) 0 0 0 0 0
13-05-2019 21.9 (15:30) 13.7 (00:00) 17.8 8.61 (10:10) 3.89 (20:10) 0 0 0 0 0
18-05-2019 21.8 (14:30) 14.1 (06:40) 17.9 7.22 (17:50) 3.61 (17:50) 0 0 0 0 0
04-05-2019 20.6 (16:10) 12.1 (00:00) 16.4 8.06 (12:10) 3.33 (10:50) 0 0 0 0 0
07-05-2019 19.6 (14:20) 12.5 (00:00) 16.1 5.83 (15:20) 3.33 (17:00) 0 0 0 0 0
01-05-2019 19.2 (15:40) 10.9 (00:00) 15.1 5.56 (16:00) 3.06 (14:30) 0 0 0 0 0

Gráficas

Temp. máximas Temp. mínimas Temp. medias Precipitaciones Rachas de viento máximas Velocidades máximas media en intervalos de 10 minutos

Datos horarios

Fecha y hora oficial Temperatura (ºC) Velocidad del viento (km/h) Dirección del viento Racha (km/h) Dirección de racha Precipitación (mm) Presión (hPa) Tendencia (hPa) Humedad (%)
2019-05-22 23:00:00 18.2 0 Calma 9 Sudoeste 0 -- -- 70
2019-05-22 22:00:00 19 5 Sudoeste 17 Sur 0 -- -- 71
2019-05-22 21:00:00 19.3 9 Sur 22 Sur 0 -- -- 67
2019-05-22 20:00:00 19.7 11 Sudoeste 24 Sudoeste 0 -- -- 66
2019-05-22 19:00:00 20.2 14 Sur 26 Sudoeste 0 -- -- 67
2019-05-22 18:00:00 20.5 13 Sur 28 Sudoeste 0 -- -- 63
2019-05-22 17:00:00 20.9 16 Sur 30 Sur 0 -- -- 60
2019-05-22 16:00:00 20.6 17 Sur 28 Sur 0 -- -- 61
2019-05-22 15:00:00 21.2 13 Sur 28 Sur 0 -- -- 54
2019-05-22 14:00:00 21.1 11 Sudoeste 22 Sur 0 -- -- 58
2019-05-22 13:00:00 21.5 12 Sudoeste 21 Sudoeste 0 -- -- 59
2019-05-22 12:00:00 20.6 7 Sur 11 Sur 0 -- -- 59
2019-05-22 11:00:00 19.9 6 Sur 9 Sur 0 -- -- 62
2019-05-22 10:00:00 19.2 3 Sudeste 6 Sudeste 0 -- -- 59
2019-05-22 09:00:00 17.4 2 Sudeste 5 Sudeste 0 -- -- 64
2019-05-22 08:00:00 15.6 0 Calma 4 Nordeste 0 -- -- 71
2019-05-22 07:00:00 14.3 2 Nordeste 5 Nordeste 0 -- -- 73
2019-05-22 06:00:00 14 4 Nordeste 10 Norte 0 -- -- 75
2019-05-22 05:00:00 13.9 3 Norte 6 Norte 0 -- -- 77
2019-05-22 04:00:00 14.2 4 Nordeste 6 Norte 0 -- -- 75
2019-05-22 03:00:00 14.5 0 Calma 4 Nordeste 0 -- -- 74
2019-05-22 02:00:00 14.8 0 Calma 4 Norte 0 -- -- 68
2019-05-22 01:00:00 15.8 0 Calma 5 Norte 0 -- -- 66
2019-05-22 00:00:00 16.5 2 Noroeste 6 Noroeste 0 -- -- 63
2019-05-21 23:00:00 17.3 0 Calma 7 Sudoeste 0 -- -- 70
2019-05-21 22:00:00 18.1 4 Sudoeste 9 Sur 0 -- -- 72
2019-05-21 21:00:00 18.7 2 Oeste 8 Oeste 0 -- -- 72
2019-05-21 20:00:00 19 5 Sur 12 Sudoeste 0 -- -- 63
2019-05-21 19:00:00 20.4 4 Sudoeste 11 Sudoeste 0 -- -- 50
2019-05-21 18:00:00 19.8 4 Sur 10 Sur 0 -- -- 59
2019-05-21 17:00:00 19.3 5 Sur 13 Sur 0 -- -- 67
2019-05-21 16:00:00 19.7 8 Sur 19 Sur 0 -- -- 63
2019-05-21 15:00:00 19.2 11 Sur 19 Sur 0 -- -- 63
2019-05-21 14:00:00 20 8 Sur 15 Sur 0 -- -- 55
2019-05-21 13:00:00 19.4 9 Sudoeste 24 Sur 0 -- -- 59
2019-05-21 12:00:00 20.9 9 Sudoeste 17 Sudoeste 0 -- -- 49
2019-05-21 11:00:00 22.2 2 Sudeste 9 Nordeste 0 -- -- 43
2019-05-21 10:00:00 20 5 Nordeste 12 Nordeste 0 -- -- 51
2019-05-21 09:00:00 18.4 7 Nordeste 12 Nordeste 0 -- -- 54
2019-05-21 08:00:00 16.4 8 Nordeste 12 Nordeste 0 -- -- 63
2019-05-21 07:00:00 15.3 3 Norte 7 Norte 0 -- -- 67
2019-05-21 06:00:00 15.2 3 Norte 8 Noroeste 0 -- -- 66
2019-05-21 05:00:00 15.3 3 Norte 10 Norte 0 -- -- 64
2019-05-21 04:00:00 15.3 4 Norte 8 Nordeste 0 -- -- 62
2019-05-21 03:00:00 15.2 4 Norte 6 Norte 0 -- -- 60
2019-05-21 02:00:00 15.6 3 Norte 13 Norte 0 -- -- 59
2019-05-21 01:00:00 16.2 6 Norte 14 Norte 0 -- -- 57
2019-05-21 00:00:00 16.3 4 Norte 12 Nordeste 0 -- -- 56
2019-05-20 23:00:00 17.2 3 Norte 14 Sudoeste 0 -- -- 63
2019-05-20 22:00:00 17.9 6 Sudoeste 15 Sur 0 -- -- 60
2019-05-20 21:00:00 18.6 7 Sudoeste 17 Oeste 0 -- -- 55
2019-05-20 20:00:00 19.6 7 Sudoeste 22 Sudoeste 0 -- -- 48
2019-05-20 19:00:00 19.1 11 Sur 28 Sudoeste 0 -- -- 52
2019-05-20 18:00:00 21.4 12 Sudoeste 33 Sudoeste 0 -- -- 37
2019-05-20 17:00:00 21.8 15 Sudoeste 32 Sudoeste 0 -- -- 37
2019-05-20 16:00:00 23.6 4 Sudoeste 24 Noroeste 0 -- -- 33
2019-05-20 15:00:00 23.8 7 Oeste 29 Este 0 -- -- 32
2019-05-20 14:00:00 22.2 6 Sudoeste 15 Sudoeste 0 -- -- 41
2019-05-20 13:00:00 22.2 6 Este 23 Este 0 -- -- 46
2019-05-20 12:00:00 20.3 2 Oeste 28 Sur 0 -- -- 56
2019-05-20 11:00:00 18.7 10 Sur 21 Sudoeste 0 -- -- 53
2019-05-20 10:00:00 19 4 Sur 27 Nordeste 0 -- -- 51
2019-05-20 09:00:00 18.4 3 Norte 18 Noroeste 0 -- -- 50
2019-05-20 08:00:00 16.5 6 Nordeste 13 Nordeste 0 -- -- 60
2019-05-20 07:00:00 14.4 0 Calma 7 Norte 0 -- -- 76
2019-05-20 06:00:00 13.8 0 Calma 6 Nordeste 0 -- -- 76
2019-05-20 05:00:00 14 2 Norte 7 Nordeste 0 -- -- 70
2019-05-20 04:00:00 14.2 4 Norte 7 Nordeste 0 -- -- 66
2019-05-20 03:00:00 15 0 Calma 4 Nordeste 0 -- -- 61
2019-05-20 02:00:00 15.9 0 Calma 6 Sudeste 0 -- -- 60
2019-05-20 01:00:00 16.5 0 Calma 5 Norte 0 -- -- 58
2019-05-20 00:00:00 16.8 0 Calma 8 Norte 0 -- -- 57
2019-05-19 23:00:00 16.7 4 Norte 9 Oeste 0 -- -- 57
2019-05-19 22:00:00 17.1 2 Oeste 13 Sudoeste 0 -- -- 57
2019-05-19 21:00:00 17.6 5 Sudoeste 18 Noroeste 0 -- -- 53
2019-05-19 20:00:00 18.2 6 Sudoeste 23 Oeste 0 -- -- 52
2019-05-19 19:00:00 19 5 Oeste 23 Oeste 0 -- -- 50
2019-05-19 18:00:00 19.7 8 Noroeste 29 Noroeste 0 -- -- 41
2019-05-19 17:00:00 20.7 8 Oeste 33 Oeste 0 -- -- 40
2019-05-19 16:00:00 20 6 Noroeste 26 Noroeste 0 -- -- 40
2019-05-19 15:00:00 20.1 9 Oeste 31 Oeste 0 -- -- 43
2019-05-19 14:00:00 20.6 11 Oeste 33 Sudoeste 0 -- -- 45
2019-05-19 13:00:00 18.7 12 Sudoeste 30 Sudoeste 0 -- -- 52
2019-05-19 12:00:00 19.1 7 Oeste 22 Norte 0 -- -- 48
2019-05-19 11:00:00 19.3 4 Oeste 22 Norte 0 -- -- 48
2019-05-19 10:00:00 18.1 11 Norte 30 Norte 0 -- -- 51
2019-05-19 09:00:00 17 12 Norte 33 Noroeste 0 -- -- 54
2019-05-19 08:00:00 16 10 Norte 25 Noroeste 0 -- -- 57
2019-05-19 07:00:00 15.2 4 Norte 13 Noroeste 0 -- -- 59
2019-05-19 06:00:00 15.3 0 Calma 9 Sudeste 0 -- -- 60
2019-05-19 05:00:00 14.8 0 Calma 8 Norte 0 -- -- 75
2019-05-19 04:00:00 16 3 Sur 9 Sur 0 -- -- 75
2019-05-19 03:00:00 15.9 2 Sudoeste 11 Sudeste 0 -- -- 73
2019-05-19 02:00:00 16.6 5 Sur 13 Sur 0 -- -- 69
2019-05-19 01:00:00 16.3 5 Sur 9 Sudoeste 0 -- -- 68
2019-05-19 00:00:00 16.5 2 Sudoeste 11 Sudoeste 0 -- -- 64
2019-05-18 23:00:00 17.1 4 Oeste 10 Oeste 0 -- -- 57
2019-05-18 22:00:00 17.3 4 Sudoeste 12 Sudoeste 0 -- -- 52
2019-05-18 21:00:00 17.7 5 Sudoeste 14 Oeste 0 -- -- 51
2019-05-18 20:00:00 18.4 6 Sudoeste 22 Sudoeste 0 -- -- 48
2019-05-18 19:00:00 20.1 8 Oeste 22 Oeste 0 -- -- 36
2019-05-18 18:00:00 18.8 7 Sudoeste 26 Sudoeste 0 -- -- 51
2019-05-18 17:00:00 19.9 8 Sudoeste 23 Sudoeste 0 -- -- 47
2019-05-18 16:00:00 19.4 11 Sudoeste 23 Sudoeste 0 -- -- 49
2019-05-18 15:00:00 20.4 4 Oeste 23 Sudoeste 0 -- -- 42
2019-05-18 14:00:00 20.5 7 Sur 24 Este 0 -- -- 47
2019-05-18 13:00:00 19.5 5 Este 23 Noroeste 0 -- -- 50
2019-05-18 12:00:00 18.8 5 Sudeste 14 Sur 0 -- -- 54
2019-05-18 11:00:00 18.1 8 Sur 15 Sudoeste 0 -- -- 53
2019-05-18 10:00:00 18.2 6 Sur 13 Nordeste 0 -- -- 54
2019-05-18 09:00:00 17.1 6 Este 15 Este 0 -- -- 58
2019-05-18 08:00:00 15.7 3 Nordeste 9 Norte 0 -- -- 66
2019-05-18 07:00:00 14.5 2 Oeste 6 Noroeste 0 -- -- 69
2019-05-18 06:00:00 14.6 3 Noroeste 9 Noroeste 0 -- -- 68
2019-05-18 05:00:00 15.3 4 Noroeste 9 Noroeste 0 -- -- 66
2019-05-18 04:00:00 15.9 0 Calma 5 Noroeste 0 -- -- 65
2019-05-18 03:00:00 16 2 Nordeste 9 Noroeste 0 -- -- 66
2019-05-18 02:00:00 16.2 3 Nordeste 15 Norte 0 -- -- 65
2019-05-18 01:00:00 16.3 11 Nordeste 18 Nordeste 0 -- -- 65
2019-05-18 00:00:00 16.7 3 Nordeste 12 Este 0 -- -- 60
2019-05-17 23:00:00 16.3 0 Calma 12 Noroeste 0 -- -- 60
2019-05-17 22:00:00 16.1 4 Noroeste 15 Noroeste 0 -- -- 61
2019-05-17 21:00:00 16.4 5 Noroeste 21 Noroeste 0 -- -- 57
2019-05-17 20:00:00 17.1 8 Norte 24 Norte 0 -- -- 58
2019-05-17 19:00:00 17.6 8 Noroeste 40 Noroeste 0 -- -- 54
2019-05-17 18:00:00 17.7 18 Noroeste 46 Norte 0 -- -- 54
2019-05-17 17:00:00 18.2 19 Noroeste 51 Noroeste 0 -- -- 53
2019-05-17 16:00:00 18.2 14 Noroeste 48 Noroeste 0 -- -- 50
2019-05-17 15:00:00 18.2 19 Noroeste 60 Noroeste 0 -- -- 48
2019-05-17 14:00:00 18.5 11 Noroeste 45 Noroeste 0 -- -- 49
2019-05-17 13:00:00 18.4 17 Noroeste 52 Noroeste 0 -- -- 51
2019-05-17 12:00:00 18 22 Noroeste 49 Noroeste 0 -- -- 63
2019-05-17 11:00:00 19.4 11 Oeste 42 Sudoeste 0 -- -- 68
2019-05-17 10:00:00 18 5 Sudeste 10 Sudeste 0 -- -- 73
2019-05-17 09:00:00 17.1 4 Nordeste 10 Este 0 -- -- 74
2019-05-17 08:00:00 16.4 6 Norte 11 Nordeste 0 -- -- 72
2019-05-17 07:00:00 16.3 7 Nordeste 14 Nordeste 0 -- -- 72
2019-05-17 06:00:00 16.2 6 Nordeste 14 Este 0 -- -- 71
2019-05-17 05:00:00 16 6 Nordeste 16 Nordeste 0 -- -- 73
2019-05-17 04:00:00 15.8 7 Norte 18 Nordeste 0 -- -- 73
2019-05-17 03:00:00 15.8 10 Nordeste 17 Nordeste 0 -- -- 75
2019-05-17 02:00:00 16.1 9 Nordeste 17 Nordeste 0 -- -- 74
2019-05-17 01:00:00 16.1 9 Nordeste 16 Este 0 -- -- 73
2019-05-17 00:00:00 16.1 8 Nordeste 16 Nordeste 0 -- -- 72
2019-05-16 23:00:00 16.2 7 Este 20 Este 0 -- -- 70
2019-05-16 22:00:00 16.8 10 Este 23 Este 0 -- -- 66
2019-05-16 21:00:00 17.3 12 Sur 21 Sur 0 -- -- 61
2019-05-16 20:00:00 17.6 12 Sur 24 Sur 0 -- -- 61
2019-05-16 19:00:00 17.6 15 Sur 24 Sur 0 -- -- 62
2019-05-16 18:00:00 18.1 13 Sur 23 Sur 0 -- -- 60
2019-05-16 17:00:00 18.4 13 Sur 24 Sur 0 -- -- 61
2019-05-16 16:00:00 18.7 11 Sur 19 Sur 0 -- -- 57
2019-05-16 15:00:00 19.1 12 Sur 21 Sur 0 -- -- 57
2019-05-16 14:00:00 19.4 9 Sur 20 Sur 0 -- -- 54
2019-05-16 13:00:00 18.8 10 Sur 19 Sudoeste 0 -- -- 57
2019-05-16 12:00:00 18.1 10 Sudoeste 19 Sur 0 -- -- 61
2019-05-16 11:00:00 18.4 7 Sur 14 Sudoeste 0 -- -- 60
2019-05-16 10:00:00 18.9 3 Este 8 Este 0 -- -- 57
2019-05-16 09:00:00 17.5 3 Este 6 Este 0 -- -- 58
2019-05-16 08:00:00 14.6 2 Nordeste 5 Nordeste 0 -- -- 66
2019-05-16 07:00:00 13.3 2 Nordeste 5 Norte 0 -- -- 67
2019-05-16 06:00:00 13.8 2 Norte 7 Norte 0 -- -- 63
2019-05-16 05:00:00 14.1 3 Norte 10 Noroeste 0 -- -- 66
2019-05-16 04:00:00 14.1 2 Norte 7 Norte 0 -- -- 71
2019-05-16 03:00:00 14.4 4 Norte 8 Norte 0 -- -- 70
2019-05-16 02:00:00 14.3 3 Norte 16 Norte 0 -- -- 69
2019-05-16 01:00:00 15.4 8 Nordeste 16 Nordeste 0 -- -- 69
2019-05-16 00:00:00 15.1 9 Este 14 Este 0 -- -- 70
2019-05-15 23:00:00 15.7 9 Este 19 Este 0 -- -- 56
2019-05-15 22:00:00 17.7 9 Nordeste 24 Nordeste 0 -- -- 37
2019-05-15 21:00:00 18.4 12 Nordeste 32 Nordeste 0 -- -- 37
2019-05-15 20:00:00 19 21 Nordeste 37 Nordeste 0 -- -- 38
2019-05-15 19:00:00 19.7 21 Nordeste 34 Nordeste 0 -- -- 41
2019-05-15 18:00:00 19.6 9 Sur 16 Sur 0 -- -- 60
2019-05-15 17:00:00 20.2 9 Sur 22 Sur 0 -- -- 66
2019-05-15 16:00:00 20.5 11 Sur 20 Sudoeste 0 -- -- 69
2019-05-15 15:00:00 20.5 10 Sur 19 Sur 0 -- -- 69
2019-05-15 14:00:00 20.6 8 Sur 21 Sur 0 -- -- 69
2019-05-15 13:00:00 20 11 Sur 22 Sudoeste 0 -- -- 70
2019-05-15 12:00:00 19.7 13 Sur 22 Sur 0 -- -- 69
2019-05-15 11:00:00 19.2 10 Sur 15 Sur 0 -- -- 69
2019-05-15 10:00:00 18.7 7 Sudeste 14 Sur 0 -- -- 68
2019-05-15 09:00:00 17.3 6 Sudeste 10 Sudeste 0 -- -- 69
2019-05-15 08:00:00 15.3 0 Calma 5 Nordeste 0 -- -- 76
2019-05-15 07:00:00 13.9 0 Calma 5 Nordeste 0 -- -- 80
2019-05-15 06:00:00 13.7 0 Calma 3 Nordeste 0 -- -- 80
2019-05-15 05:00:00 14.2 0 Calma 4 Nordeste 0 -- -- 78
2019-05-15 04:00:00 14.8 0 Calma 5 Norte 0 -- -- 75
2019-05-15 03:00:00 15.5 3 Nordeste 6 Norte 0 -- -- 70
2019-05-15 02:00:00 15.2 3 Norte 6 Norte 0 -- -- 68
2019-05-15 01:00:00 15.6 3 Norte 4 Nordeste 0 -- -- 65
2019-05-15 00:00:00 16.5 2 Norte 5 Noroeste 0 -- -- 62
2019-05-14 23:00:00 17.1 0 Calma 8 Sudoeste 0 -- -- 57
2019-05-14 22:00:00 18 4 Sur 13 Sur 0 -- -- 64
2019-05-14 21:00:00 18.1 8 Sur 19 Sur 0 -- -- 62
2019-05-14 20:00:00 19.1 8 Sur 16 Sudoeste 0 -- -- 50
2019-05-14 19:00:00 21.5 6 Sudoeste 23 Sudoeste 0 -- -- 34
2019-05-14 18:00:00 22.1 10 Sudoeste 24 Sudoeste 0 -- -- 33
2019-05-14 17:00:00 22.5 13 Sudoeste 25 Sudoeste 0 -- -- 34
2019-05-14 16:00:00 23.4 10 Sudoeste 23 Sudoeste 0 -- -- 35
2019-05-14 15:00:00 24 8 Sudoeste 17 Sudoeste 0 -- -- 35
2019-05-14 14:00:00 22.9 8 Sudoeste 19 Sudoeste 0 -- -- 38
2019-05-14 13:00:00 22.3 9 Sur 19 Sur 0 -- -- 40
2019-05-14 12:00:00 22.4 4 Sudeste 22 Nordeste 0 -- -- 39
2019-05-14 11:00:00 21 12 Norte 31 Noroeste 0 -- -- 44
2019-05-14 10:00:00 20 11 Noroeste 27 Norte 0 -- -- 44
2019-05-14 09:00:00 18.7 11 Norte 28 Norte 0 -- -- 47
2019-05-14 08:00:00 17.2 13 Noroeste 24 Noroeste 0 -- -- 52
2019-05-14 07:00:00 15.7 13 Noroeste 26 Noroeste 0 -- -- 62
2019-05-14 06:00:00 15.6 13 Noroeste 28 Noroeste 0 -- -- 60
2019-05-14 05:00:00 13.5 3 Norte 6 Norte 0 -- -- 56
2019-05-14 04:00:00 13.7 0 Calma 6 Nordeste 0 -- -- 57
2019-05-14 03:00:00 14.2 0 Calma 7 Nordeste 0 -- -- 51
2019-05-14 02:00:00 14.4 3 Norte 5 Norte 0 -- -- 50
2019-05-14 01:00:00 14.9 0 Calma 7 Oeste 0 -- -- 50
2019-05-14 00:00:00 15.9 2 Noroeste 9 Noroeste 0 -- -- 47
2019-05-13 23:00:00 16.8 4 Noroeste 15 Nordeste 0 -- -- 46
2019-05-13 22:00:00 17.3 9 Nordeste 17 Nordeste 0 -- -- 48
2019-05-13 21:00:00 17.8 9 Nordeste 26 Nordeste 0 -- -- 45
2019-05-13 20:00:00 18.5 14 Este 25 Este 0 -- -- 41
2019-05-13 19:00:00 19.9 10 Nordeste 26 Nordeste 0 -- -- 36
2019-05-13 18:00:00 21.1 12 Norte 29 Nordeste 0 -- -- 31
2019-05-13 17:00:00 21.5 10 Norte 23 Norte 0 -- -- 36
2019-05-13 16:00:00 20.4 11 Norte 24 Nordeste 0 -- -- 44
2019-05-13 15:00:00 20.5 12 Norte 30 Nordeste 0 -- -- 47
2019-05-13 14:00:00 20.1 10 Norte 28 Noroeste 0 -- -- 51
2019-05-13 13:00:00 20.7 10 Noroeste 26 Noroeste 0 -- -- 48
2019-05-13 12:00:00 20 5 Oeste 27 Noroeste 0 -- -- 51
2019-05-13 11:00:00 19.1 5 Oeste 31 Oeste 0 -- -- 56
2019-05-13 10:00:00 18.8 8 Oeste 20 Oeste 0 -- -- 57
2019-05-13 09:00:00 19.3 4 Oeste 20 Oeste 0 -- -- 60
2019-05-13 08:00:00 17.4 5 Oeste 15 Oeste 0 -- -- 66
2019-05-13 07:00:00 14.7 3 Norte 6 Norte 0 -- -- 60
2019-05-13 06:00:00 13.9 0 Calma 3 Este 0 -- -- 64
2019-05-13 05:00:00 14.2 0 Calma 5 Oeste 0 -- -- 60
2019-05-13 04:00:00 15.7 3 Oeste 7 Oeste 0 -- -- 57
2019-05-13 03:00:00 15.7 2 Oeste 9 Oeste 0 -- -- 58
2019-05-13 02:00:00 15.7 0 Calma 9 Norte 0 -- -- 61
2019-05-13 01:00:00 15.9 5 Noroeste 11 Noroeste 0 -- -- 63
2019-05-13 00:00:00 16.5 6 Noroeste 10 Noroeste 0 -- -- 61
2019-05-12 23:00:00 16.9 4 Nordeste 17 Nordeste 0 -- -- 61
2019-05-12 22:00:00 17.5 6 Sudeste 24 Este 0 -- -- 63
2019-05-12 21:00:00 18.5 11 Este 21 Este 0 -- -- 54
2019-05-12 20:00:00 19.2 8 Sudoeste 26 Sur 0 -- -- 48
2019-05-12 19:00:00 20.9 7 Este 21 Noroeste 0 -- -- 38
2019-05-12 18:00:00 21.6 11 Noroeste 26 Noroeste 0 -- -- 37
2019-05-12 17:00:00 22.3 10 Norte 26 Norte 0 -- -- 34
2019-05-12 16:00:00 23 9 Sudoeste 30 Sudoeste 0 -- -- 38
2019-05-12 15:00:00 22 12 Sudoeste 34 Sudoeste 0 -- -- 47
2019-05-12 14:00:00 21.2 13 Sudoeste 35 Sudoeste 0 -- -- 52
2019-05-12 13:00:00 21.1 13 Sudoeste 30 Sudoeste 0 -- -- 50
2019-05-12 12:00:00 19.6 11 Sur 19 Sudoeste 0 -- -- 48
2019-05-12 11:00:00 19.5 9 Sur 17 Sur 0 -- -- 50
2019-05-12 10:00:00 20.2 5 Noroeste 22 Norte 0 -- -- 48
2019-05-12 09:00:00 18.6 9 Norte 18 Norte 0 -- -- 49
2019-05-12 08:00:00 17.5 4 Noroeste 19 Norte 0 -- -- 49
2019-05-12 07:00:00 15.5 5 Noroeste 10 Noroeste 0 -- -- 59
2019-05-12 06:00:00 15 0 Calma 5 Nordeste 0 -- -- 68
2019-05-12 05:00:00 15.6 0 Calma 5 Sudeste 0 -- -- 67
2019-05-12 04:00:00 16.4 0 Calma 12 Noroeste 0 -- -- 57
2019-05-12 03:00:00 17.2 6 Norte 12 Norte 0 -- -- 55
2019-05-12 02:00:00 17 5 Norte 14 Norte 0 -- -- 57
2019-05-12 01:00:00 17 6 Norte 16 Norte 0 -- -- 60
2019-05-12 00:00:00 17.1 10 Nordeste 20 Nordeste 0 -- -- 63
2019-05-11 23:00:00 17.3 13 Nordeste 34 Nordeste 0 -- -- 61
2019-05-11 22:00:00 17.9 14 Nordeste 34 Nordeste 0 -- -- 58
2019-05-11 21:00:00 18.7 20 Nordeste 39 Nordeste 0 -- -- 57
2019-05-11 20:00:00 20.5 14 Nordeste 27 Nordeste 0 -- -- 54
2019-05-11 19:00:00 21.5 15 Nordeste 29 Nordeste 0 -- -- 54
2019-05-11 18:00:00 22.9 15 Este 32 Este 0 -- -- 51
2019-05-11 17:00:00 23.5 18 Este 31 Este 0 -- -- 50
2019-05-11 16:00:00 25 17 Nordeste 29 Este 0 -- -- 51
2019-05-11 15:00:00 22.9 5 Este 18 Este 0 -- -- 66
2019-05-11 14:00:00 24.6 8 Sur 18 Sur 0 -- -- 54
2019-05-11 13:00:00 23.8 7 Sudoeste 17 Sudoeste 0 -- -- 57
2019-05-11 12:00:00 23.5 6 Sudoeste 14 Sur 0 -- -- 58
2019-05-11 11:00:00 24.9 4 Nordeste 8 Nordeste 0 -- -- 52
2019-05-11 10:00:00 22.6 4 Nordeste 12 Norte 0 -- -- 57
2019-05-11 09:00:00 21 7 Nordeste 14 Nordeste 0 -- -- 62
2019-05-11 08:00:00 19.4 5 Norte 11 Norte 0 -- -- 68
2019-05-11 07:00:00 18.1 5 Nordeste 8 Norte 0 -- -- 76
2019-05-11 06:00:00 17.8 4 Nordeste 8 Nordeste 0 -- -- 80
2019-05-11 05:00:00 18.1 2 Norte 5 Nordeste 0 -- -- 86
2019-05-11 04:00:00 18.1 0 Calma 4 Sudeste 0 -- -- 87
2019-05-11 03:00:00 18.2 0 Calma 4 Norte 0 -- -- 81
2019-05-11 02:00:00 18.6 0 Calma 8 Norte 0 -- -- 81
2019-05-11 01:00:00 18.7 0 Calma 5 Nordeste 0 -- -- 87
2019-05-11 00:00:00 18.9 0 Calma 6 Sudoeste 0 -- -- 89
2019-05-10 23:00:00 19.2 4 Sudoeste 9 Sudoeste 0 -- -- 87
2019-05-10 22:00:00 19.6 0 Calma 9 Sur 0 -- -- 82
2019-05-10 21:00:00 19.6 4 Sur 11 Sur 0 -- -- 86
2019-05-10 20:00:00 20 6 Sur 19 Sudeste 0 -- -- 81
2019-05-10 19:00:00 21.3 9 Sudoeste 21 Sur 0 -- -- 72
2019-05-10 18:00:00 20.9 13 Sur 25 Sur 0 -- -- 71
2019-05-10 17:00:00 23.9 8 Sur 19 Sudoeste 0 -- -- 57
2019-05-10 16:00:00 26.3 9 Sudoeste 25 Sudoeste 0 -- -- 48
2019-05-10 15:00:00 25.2 11 Sudoeste 25 Sudoeste 0 -- -- 54
2019-05-10 14:00:00 26.1 9 Sudoeste 30 Sudoeste 0 -- -- 52
2019-05-10 13:00:00 25.4 8 Sudoeste 27 Sur 0 -- -- 51
2019-05-10 12:00:00 24.9 10 Sudoeste 22 Sudoeste 0 -- -- 51
2019-05-10 11:00:00 23.6 6 Sur 15 Sudoeste 0 -- -- 59
2019-05-10 10:00:00 21 7 Sudoeste 17 Sudoeste 0 -- -- 73
2019-05-10 09:00:00 19.5 10 Sudoeste 17 Sur 0 -- -- 84
2019-05-10 08:00:00 18.7 2 Oeste 23 Sudoeste 0 -- -- 85
2019-05-10 07:00:00 17.9 11 Sudoeste 22 Sur 0 -- -- 87
2019-05-10 06:00:00 17.7 9 Sudoeste 16 Sudoeste 0 -- -- 89
2019-05-10 05:00:00 17.4 0 Calma 7 Sudoeste 0 -- -- 83
2019-05-10 04:00:00 16.7 0 Calma 6 Sudoeste 0 -- -- 65
2019-05-10 03:00:00 17.1 0 Calma 6 Norte 0 -- -- 59
2019-05-10 02:00:00 17 3 Norte 4 Norte 0 -- -- 59
2019-05-10 01:00:00 17.6 0 Calma 4 Norte 0 -- -- 64
2019-05-10 00:00:00 17.8 0 Calma 5 Este 0 -- -- 52
2019-05-09 23:00:00 18.8 0 Calma 12 Oeste 0 -- -- 50
2019-05-09 22:00:00 18.9 6 Sudoeste 16 Sudoeste 0 -- -- 44
2019-05-09 21:00:00 18.9 7 Sudoeste 20 Sudoeste 0 -- -- 50
2019-05-09 20:00:00 18.4 12 Sudoeste 23 Sur 0 -- -- 63
2019-05-09 19:00:00 20.5 10 Sur 32 Sur 0 -- -- 41
2019-05-09 18:00:00 22.8 8 Sur 23 Sudoeste 0 -- -- 34
2019-05-09 17:00:00 22.8 9 Sudoeste 26 Sudoeste 0 -- -- 37
2019-05-09 16:00:00 23.2 13 Sudoeste 29 Sudoeste 0 -- -- 38
2019-05-09 15:00:00 23.2 6 Sudoeste 27 Oeste 0 -- -- 40
2019-05-09 14:00:00 22.7 11 Sur 18 Sur 0 -- -- 37
2019-05-09 13:00:00 21.1 13 Sur 20 Sur 0 -- -- 43
2019-05-09 12:00:00 23.5 7 Sudeste 25 Nordeste 0 -- -- 31
2019-05-09 11:00:00 22.3 12 Nordeste 30 Norte 0 -- -- 34
2019-05-09 10:00:00 21.2 14 Norte 35 Norte 0 -- -- 37
2019-05-09 09:00:00 20.8 18 Norte 34 Norte 0 -- -- 41
2019-05-09 08:00:00 20.9 3 Norte 14 Norte 0 -- -- 42
2019-05-09 07:00:00 20 7 Oeste 35 Oeste 0 -- -- 53
2019-05-09 06:00:00 22 10 Noroeste 29 Noroeste 0 -- -- 43
2019-05-09 05:00:00 22.4 10 Noroeste 49 Noroeste 0 -- -- 43
2019-05-09 04:00:00 22.5 9 Noroeste 44 Oeste 0 -- -- 44
2019-05-09 03:00:00 22.2 12 Oeste 34 Oeste 0 -- -- 51
2019-05-09 02:00:00 22.1 10 Oeste 55 Oeste 0 -- -- 53
2019-05-09 01:00:00 20.9 8 Sudoeste 28 Oeste 0 -- -- 61
2019-05-09 00:00:00 21.7 7 Oeste 28 Oeste 0 -- -- 55
2019-05-08 23:00:00 20.1 8 Sudoeste 24 Sudoeste 0 -- -- 69
2019-05-08 22:00:00 20.1 6 Sudoeste 32 Sudoeste 0 -- -- 70
2019-05-08 21:00:00 19.6 9 Sudoeste 24 Sudoeste 0 -- -- 74
2019-05-08 20:00:00 20.4 10 Sudoeste 29 Sudoeste 0 -- -- 68
2019-05-08 19:00:00 20.2 9 Sudoeste 24 Sudoeste 0 -- -- 75
2019-05-08 18:00:00 20.7 12 Sudoeste 30 Sudoeste 0 -- -- 73
2019-05-08 17:00:00 19.5 14 Sur 28 Sudoeste 0 -- -- 80
2019-05-08 16:00:00 19.8 12 Sur 28 Sur 0 -- -- 80
2019-05-08 15:00:00 19.9 13 Sur 31 Sudoeste 0 -- -- 78
2019-05-08 14:00:00 19.2 14 Sur 27 Sudoeste 0 -- -- 78
2019-05-08 13:00:00 19.2 14 Sur 31 Sur 0 -- -- 75
2019-05-08 12:00:00 18.8 17 Sur 28 Sur 0 -- -- 74
2019-05-08 11:00:00 18.7 15 Sur 23 Sudoeste 0 -- -- 76
2019-05-08 10:00:00 18 8 Sudoeste 19 Sur 0 -- -- 77
2019-05-08 09:00:00 17.7 7 Sudoeste 17 Sudoeste 0 -- -- 80
2019-05-08 08:00:00 17.1 5 Sudoeste 14 Sudoeste 0 -- -- 82
2019-05-08 07:00:00 17 5 Sudoeste 9 Sudoeste 0 -- -- 83
2019-05-08 06:00:00 16.8 2 Sur 8 Sur 0 -- -- 81
2019-05-08 05:00:00 16.6 0 Calma 6 Norte 0 -- -- 80
2019-05-08 04:00:00 16.4 3 Norte 6 Noroeste 0 -- -- 79
2019-05-08 03:00:00 16.6 4 Norte 8 Noroeste 0 -- -- 78
2019-05-08 02:00:00 16.7 3 Norte 6 Noroeste 0 -- -- 78
2019-05-08 01:00:00 16.6 5 Noroeste 10 Norte 0 -- -- 78
2019-05-08 00:00:00 16.5 3 Este 7 Este 0 -- -- 81
2019-05-07 23:00:00 16.5 3 Este 9 Este 0 -- -- 80
2019-05-07 22:00:00 16.7 4 Este 12 Sur 0 -- -- 78
2019-05-07 21:00:00 17.1 8 Sur 16 Sur 0 -- -- 77
2019-05-07 20:00:00 17.3 8 Sur 17 Sur 0 -- -- 73
2019-05-07 19:00:00 17.6 7 Sur 19 Sur 0 -- -- 70
2019-05-07 18:00:00 18 9 Sur 19 Sur 0 -- -- 67
2019-05-07 17:00:00 18.2 12 Sur 19 Sur 0 -- -- 65
2019-05-07 16:00:00 18.7 10 Sur 21 Sur 0 -- -- 64
2019-05-07 15:00:00 19.5 10 Sur 19 Sur 0 -- -- 64
2019-05-07 14:00:00 19.2 11 Sur 19 Sudoeste 0 -- -- 64
2019-05-07 13:00:00 19.2 9 Sur 18 Sudoeste 0 -- -- 61
2019-05-07 12:00:00 18.7 9 Sur 16 Sur 0 -- -- 65
2019-05-07 11:00:00 18.3 5 Sur 12 Sur 0 -- -- 68
2019-05-07 10:00:00 18.4 4 Este 9 Este 0 -- -- 66
2019-05-07 09:00:00 15.9 5 Nordeste 9 Nordeste 0 -- -- 73
2019-05-07 08:00:00 14.4 2 Nordeste 5 Norte 0 -- -- 82
2019-05-07 07:00:00 13.3 2 Norte 8 Nordeste 0 -- -- 85
2019-05-07 06:00:00 12.9 2 Nordeste 6 Nordeste 0 -- -- 87
2019-05-07 05:00:00 12.7 3 Nordeste 6 Nordeste 0 -- -- 86
2019-05-07 04:00:00 12.9 3 Norte 6 Norte 0 -- -- 85
2019-05-07 03:00:00 13.3 3 Nordeste 7 Norte 0 -- -- 83
2019-05-07 02:00:00 13.7 4 Nordeste 8 Nordeste 0 -- -- 80
2019-05-07 01:00:00 14.2 0 Calma 5 Norte 0 -- -- 77
2019-05-07 00:00:00 14.7 0 Calma 6 Noroeste 0 -- -- 73
2019-05-06 23:00:00 15.3 0 Calma 9 Sur 0 -- -- 71
2019-05-06 22:00:00 16.1 5 Sudoeste 19 Sur 0 -- -- 68
2019-05-06 21:00:00 16.2 10 Sur 19 Sur 0 -- -- 70
2019-05-06 20:00:00 16.8 8 Sudoeste 22 Sur 0 -- -- 69
2019-05-06 19:00:00 16.8 12 Sur 22 Sudoeste 0 -- -- 70
2019-05-06 18:00:00 16.8 14 Sudoeste 26 Sudoeste 0 -- -- 68
2019-05-06 17:00:00 17.3 16 Sudoeste 27 Sur 0 -- -- 62
2019-05-06 16:00:00 17.7 13 Sur 24 Sur 0 -- -- 59
2019-05-06 15:00:00 17.6 12 Sur 25 Sur 0 -- -- 56
2019-05-06 14:00:00 17.5 13 Sur 23 Sur 0 -- -- 54
2019-05-06 13:00:00 17.6 10 Sur 21 Sudoeste 0 -- -- 53
2019-05-06 12:00:00 17.2 6 Sur 14 Sur 0 -- -- 48
2019-05-06 11:00:00 17.9 5 Este 10 Este 0 -- -- 47
2019-05-06 10:00:00 16.4 6 Este 12 Norte 0 -- -- 51
2019-05-06 09:00:00 14.3 4 Nordeste 9 Nordeste 0 -- -- 57
2019-05-06 08:00:00 13.6 4 Nordeste 8 Norte 0 -- -- 59
2019-05-06 07:00:00 13 5 Norte 10 Norte 0 -- -- 61
2019-05-06 06:00:00 12.4 5 Norte 13 Norte 0 -- -- 67
2019-05-06 05:00:00 12.9 7 Nordeste 18 Nordeste 0 -- -- 68
2019-05-06 04:00:00 12.4 8 Nordeste 18 Nordeste 0 -- -- 77
2019-05-06 03:00:00 13.2 8 Norte 13 Nordeste 0 -- -- 73
2019-05-06 02:00:00 13.3 4 Norte 15 Norte 0 -- -- 72
2019-05-06 01:00:00 14.2 6 Nordeste 13 Norte 0 -- -- 73
2019-05-06 00:00:00 14.4 2 Oeste 8 Sudoeste 0 -- -- 67
2019-05-05 23:00:00 14.5 2 Oeste 12 Sudoeste 0 -- -- 62
2019-05-05 22:00:00 14.9 4 Oeste 19 Sudoeste 0 -- -- 57
2019-05-05 21:00:00 15.2 8 Sudoeste 21 Sudoeste 0 -- -- 54
2019-05-05 20:00:00 15.6 11 Sur 24 Sudoeste 0 -- -- 53
2019-05-05 19:00:00 16.4 9 Sudoeste 27 Sudoeste 0 -- -- 51
2019-05-05 18:00:00 16.6 10 Sudoeste 30 Sudoeste 0 -- -- 50
2019-05-05 17:00:00 17.6 13 Sudoeste 37 Sudoeste 0 -- -- 47
2019-05-05 16:00:00 17.6 15 Sudoeste 37 Sudoeste 0 -- -- 44
2019-05-05 15:00:00 18.1 17 Sudoeste 33 Sudoeste 0 -- -- 43
2019-05-05 14:00:00 17.3 16 Sur 34 Sur 0 -- -- 44
2019-05-05 13:00:00 17.8 13 Sur 23 Sur 0 -- -- 40
2019-05-05 12:00:00 18 7 Sudeste 19 Sudeste 0 -- -- 39
2019-05-05 11:00:00 17.9 10 Este 24 Este 0 -- -- 42
2019-05-05 10:00:00 16.7 12 Este 27 Nordeste 0 -- -- 44
2019-05-05 09:00:00 15.1 15 Este 36 Nordeste 0 -- -- 47
2019-05-05 08:00:00 14 21 Nordeste 40 Nordeste 0 -- -- 53
2019-05-05 07:00:00 14.6 5 Norte 21 Noroeste 0 -- -- 63
2019-05-05 06:00:00 15 4 Sudeste 20 Nordeste 0 -- -- 56
2019-05-05 05:00:00 15.8 9 Noroeste 26 Noroeste 0 -- -- 54
2019-05-05 04:00:00 16 6 Noroeste 20 Oeste 0 -- -- 65
2019-05-05 03:00:00 15.6 3 Oeste 19 Oeste 0 -- -- 74
2019-05-05 02:00:00 15.8 8 Oeste 21 Sudoeste 0 -- -- 75
2019-05-05 01:00:00 16 7 Sudoeste 24 Sudoeste 0 -- -- 71
2019-05-05 00:00:00 15.9 8 Sudoeste 24 Sudoeste 0 -- -- 70
2019-05-04 23:00:00 16.1 11 Sudoeste 23 Sudoeste 0 -- -- 65
2019-05-04 22:00:00 15.5 7 Sudoeste 20 Sudoeste 0 -- -- 62
2019-05-04 21:00:00 16 8 Sudoeste 21 Sudoeste 0 -- -- 57
2019-05-04 20:00:00 16.6 9 Oeste 24 Sudoeste 0 -- -- 46
2019-05-04 19:00:00 17.7 9 Sudoeste 24 Sudoeste 0 -- -- 39
2019-05-04 18:00:00 18.8 9 Sudoeste 26 Oeste 0 -- -- 40
2019-05-04 17:00:00 20.2 8 Oeste 23 Noroeste 0 -- -- 37
2019-05-04 16:00:00 20.2 10 Oeste 28 Sudoeste 0 -- -- 37
2019-05-04 15:00:00 18.8 5 Sudeste 12 Sur 0 -- -- 41
2019-05-04 14:00:00 19.4 3 Sudoeste 25 Noroeste 0 -- -- 41
2019-05-04 13:00:00 19 10 Norte 29 Nordeste 0 -- -- 40
2019-05-04 12:00:00 18 10 Norte 25 Norte 0 -- -- 43
2019-05-04 11:00:00 17.4 10 Norte 27 Norte 0 -- -- 48
2019-05-04 10:00:00 16.4 11 Norte 24 Nordeste 0 -- -- 53
2019-05-04 09:00:00 15.9 3 Norte 12 Norte 0 -- -- 62
2019-05-04 08:00:00 13 3 Norte 9 Noroeste 0 -- -- 70
2019-05-04 07:00:00 12.1 4 Noroeste 11 Noroeste 0 -- -- 75
2019-05-04 06:00:00 12.5 3 Norte 13 Noroeste 0 -- -- 80
2019-05-04 05:00:00 13 8 Norte 19 Este 0 -- -- 83
2019-05-04 04:00:00 13.1 9 Nordeste 21 Este 0 -- -- 83
2019-05-04 03:00:00 12.6 2 Norte 7 Noroeste 0 -- -- 81
2019-05-04 02:00:00 13.1 3 Noroeste 10 Noroeste 0 -- -- 80
2019-05-04 01:00:00 13.7 2 Noroeste 10 Norte 0 -- -- 87
2019-05-04 00:00:00 13.8 3 Noroeste 9 Noroeste 0 -- -- 85
2019-05-03 23:00:00 14.3 3 Norte 14 Nordeste 0.1 -- -- 83
2019-05-03 22:00:00 13.9 5 Norte 13 Norte 0.3 -- -- 85
2019-05-03 21:00:00 14 3 Norte 9 Norte 1.2 -- -- 86
2019-05-03 20:00:00 14 4 Norte 12 Nordeste 2.9 -- -- 90
2019-05-03 19:00:00 14.2 12 Norte 19 Norte 4.2 -- -- 90
2019-05-03 18:00:00 16.3 12 Nordeste 24 Este 0 -- -- 73
2019-05-03 17:00:00 17.7 4 Sudeste 14 Sudoeste 0 -- -- 62
2019-05-03 16:00:00 17.8 9 Sur 22 Sur 0 -- -- 60
2019-05-03 15:00:00 18.1 10 Sur 24 Sur 0 -- -- 64
2019-05-03 14:00:00 19.2 12 Sudoeste 22 Oeste 0 -- -- 64
2019-05-03 13:00:00 19.6 8 Sudoeste 19 Sudoeste 0 -- -- 54
2019-05-03 12:00:00 19.9 7 Sur 14 Este 0 -- -- 49
2019-05-03 11:00:00 20.9 7 Este 14 Este 0 -- -- 47
2019-05-03 10:00:00 17.9 4 Nordeste 9 Nordeste 0 -- -- 57
2019-05-03 09:00:00 15.5 5 Nordeste 8 Nordeste 0 -- -- 64
2019-05-03 08:00:00 13.6 0 Calma 7 Norte 0 -- -- 72
2019-05-03 07:00:00 12.8 3 Norte 8 Norte 0 -- -- 76
2019-05-03 06:00:00 12.7 0 Calma 5 Nordeste 0 -- -- 80
2019-05-03 05:00:00 13.3 0 Calma 8 Nordeste 0 -- -- 80
2019-05-03 04:00:00 14 2 Nordeste 6 Nordeste 0 -- -- 77
2019-05-03 03:00:00 14 3 Norte 8 Nordeste 0 -- -- 76
2019-05-03 02:00:00 15 4 Norte 10 Nordeste 0 -- -- 73
2019-05-03 01:00:00 15.7 7 Nordeste 10 Nordeste 0 -- -- 73
2019-05-03 00:00:00 15.7 5 Norte 11 Nordeste 0 -- -- 68
2019-05-02 23:00:00 16.4 7 Nordeste 18 Nordeste 0 -- -- 63
2019-05-02 22:00:00 17.3 8 Este 20 Nordeste 0 -- -- 67
2019-05-02 21:00:00 18.4 10 Nordeste 17 Este 0 -- -- 62
2019-05-02 20:00:00 19 10 Este 21 Nordeste 0 -- -- 57
2019-05-02 19:00:00 19.5 13 Nordeste 22 Nordeste 0 -- -- 54
2019-05-02 18:00:00 19.7 4 Este 14 Sudoeste 0 -- -- 60
2019-05-02 17:00:00 19.1 7 Sudoeste 14 Sudoeste 0 -- -- 68
2019-05-02 16:00:00 19.4 5 Sudoeste 13 Sur 0 -- -- 62
2019-05-02 15:00:00 20.2 4 Sudoeste 12 Sudoeste 0 -- -- 59
2019-05-02 14:00:00 19.7 5 Sudoeste 15 Sur 0 -- -- 61
2019-05-02 13:00:00 19.9 6 Nordeste 14 Nordeste 0 -- -- 54
2019-05-02 12:00:00 19.4 8 Nordeste 14 Nordeste 0 -- -- 54
2019-05-02 11:00:00 20 5 Este 12 Nordeste 0 -- -- 48
2019-05-02 10:00:00 18.9 4 Nordeste 10 Nordeste 0 -- -- 45
2019-05-02 09:00:00 18.1 4 Nordeste 9 Nordeste 0 -- -- 49
2019-05-02 08:00:00 16.3 4 Nordeste 7 Este 0 -- -- 57
2019-05-02 07:00:00 15.5 5 Norte 6 Nordeste 0 -- -- 57
2019-05-02 06:00:00 15.8 2 Nordeste 9 Norte 0 -- -- 54
2019-05-02 05:00:00 15.2 4 Norte 12 Noroeste 0 -- -- 58
2019-05-02 04:00:00 16.2 7 Norte 13 Noroeste 0 -- -- 54
2019-05-02 03:00:00 15.4 7 Norte 14 Noroeste 0 -- -- 61
2019-05-02 02:00:00 15.2 8 Norte 12 Nordeste 0 -- -- 68
2019-05-02 01:00:00 15.5 4 Norte 7 Este 0 -- -- 70
2019-05-02 00:00:00 15.8 0 Calma 6 Este 0 -- -- 72
2019-05-01 23:00:00 16.2 2 Sudeste 8 Este 0 -- -- 72
2019-05-01 22:00:00 16.5 0 Calma 6 Sur 0 -- -- 72
2019-05-01 21:00:00 16.9 4 Sur 12 Sudoeste 0 -- -- 70
2019-05-01 20:00:00 17.2 8 Sudoeste 14 Oeste 0 -- -- 69
2019-05-01 19:00:00 17.7 7 Sudoeste 15 Sur 0 -- -- 68
2019-05-01 18:00:00 17.6 8 Sur 16 Sudeste 0 -- -- 69
2019-05-01 17:00:00 18.4 8 Sur 19 Sudoeste 0 -- -- 67
2019-05-01 16:00:00 18.5 11 Sur 20 Sur 0 -- -- 63
2019-05-01 15:00:00 18.3 9 Sur 18 Sur 0 -- -- 65
2019-05-01 14:00:00 18 8 Sur 19 Sur 0 -- -- 69
2019-05-01 13:00:00 17.6 9 Sur 17 Sur 0 -- -- 68
2019-05-01 12:00:00 17.5 8 Sur 13 Sudeste 0 -- -- 67
2019-05-01 11:00:00 17.1 6 Sur 15 Sur 0 -- -- 68
2019-05-01 10:00:00 16.5 6 Sudeste 10 Sudeste 0 -- -- 64
2019-05-01 09:00:00 15.1 4 Nordeste 6 Este 0 -- -- 60
2019-05-01 08:00:00 12.2 2 Norte 5 Nordeste 0 -- -- 70
2019-05-01 07:00:00 11.1 0 Calma 4 Norte 0 -- -- 70
2019-05-01 06:00:00 11.3 0 Calma 5 Norte 0 -- -- 66
2019-05-01 05:00:00 11.4 0 Calma 5 Norte 0 -- -- 66
2019-05-01 04:00:00 11.8 2 Nordeste 4 Nordeste 0 -- -- 66
2019-05-01 03:00:00 12.5 0 Calma 6 Norte 0 -- -- 61
2019-05-01 02:00:00 12.7 0 Calma 4 Norte 0 -- -- 63
2019-05-01 01:00:00 13.5 0 Calma 6 Nordeste 0 -- -- 67
2019-05-01 00:00:00 14.4 0 Calma 8 Noroeste 0 -- -- 69
2019-04-30 23:00:00 14.8 6 Noroeste 9 Noroeste 0 -- -- 69
2019-04-30 22:00:00 15.8 4 Sudoeste 12 Sudoeste 0 -- -- 67
2019-04-30 21:00:00 16 6 Sur 17 Sur 0 -- -- 66
2019-04-30 20:00:00 16.2 10 Sur 21 Sudoeste 0 -- -- 67
2019-04-30 19:00:00 16.8 11 Sur 24 Sur 0 -- -- 67
2019-04-30 18:00:00 17.1 13 Sur 26 Sur 0 -- -- 67
2019-04-30 17:00:00 17.5 13 Sur 23 Sur 0 -- -- 67
2019-04-30 16:00:00 17.9 13 Sur 24 Sur 0 -- -- 67
2019-04-30 15:00:00 17.9 12 Sur 23 Sur 0 -- -- 64
2019-04-30 14:00:00 18 9 Sur 24 Sur 0 -- -- 65
2019-04-30 13:00:00 18.5 8 Sudoeste 20 Sur 0 -- -- 66
2019-04-30 12:00:00 17.7 8 Sur 15 Sur 0 -- -- 64
2019-04-30 11:00:00 17.1 5 Sur 10 Sur 0 -- -- 67
2019-04-30 10:00:00 16.7 5 Este 9 Este 0 -- -- 69
2019-04-30 09:00:00 15.1 3 Nordeste 6 Nordeste 0 -- -- 76
2019-04-30 08:00:00 13.8 3 Nordeste 6 Nordeste 0 -- -- 81
2019-04-30 07:00:00 13.2 4 Noroeste 9 Noroeste 0 -- -- 81
2019-04-30 06:00:00 13 0 Calma 3 Norte 0 -- -- 84
2019-04-30 05:00:00 12.8 0 Calma 4 Nordeste 0 -- -- 83
2019-04-30 04:00:00 13.1 0 Calma 4 Norte 0 -- -- 81
2019-04-30 03:00:00 13.6 0 Calma 6 Norte 0 -- -- 79
2019-04-30 02:00:00 14 0 Calma 6 Nordeste 0 -- -- 77
2019-04-30 01:00:00 14.9 0 Calma 8 Sur 0 -- -- 73
2019-04-30 00:00:00 14.8 0 Calma 7 Sudoeste 0 -- -- 72
2019-04-29 23:00:00 15.5 3 Sur 9 Sudoeste 0 -- -- 70
2019-04-29 22:00:00 15.8 5 Sur 14 Sudoeste 0 -- -- 69
2019-04-29 21:00:00 16 5 Sudoeste 16 Sur 0 -- -- 67
2019-04-29 20:00:00 16.4 10 Sur 22 Sur 0 -- -- 63
2019-04-29 19:00:00 16.6 12 Sur 23 Sur 0 -- -- 60
2019-04-29 18:00:00 17.2 12 Sur 26 Sudoeste 0 -- -- 58
2019-04-29 17:00:00 17.6 13 Sur 24 Sur 0 -- -- 57
2019-04-29 16:00:00 18 13 Sur 25 Sur 0 -- -- 57
2019-04-29 15:00:00 18.1 16 Sur 28 Sur 0 -- -- 56
2019-04-29 14:00:00 17.9 13 Sur 23 Sur 0 -- -- 58
2019-04-29 13:00:00 18.1 10 Sur 21 Sur 0 -- -- 60
2019-04-29 12:00:00 18 10 Sur 18 Sur 0 -- -- 54
2019-04-29 11:00:00 18.5 4 Sur 9 Sur 0 -- -- 54
2019-04-29 10:00:00 17.5 0 Calma 9 Sudeste 0 -- -- 64
2019-04-29 09:00:00 15.9 4 Nordeste 9 Nordeste 0 -- -- 71
2019-04-29 08:00:00 14.3 4 Norte 9 Noroeste 0 -- -- 79
2019-04-29 07:00:00 13.6 3 Norte 8 Noroeste 0 -- -- 80
2019-04-29 06:00:00 14.3 3 Norte 9 Este 0 -- -- 78
2019-04-29 05:00:00 14.6 3 Nordeste 10 Nordeste 0 -- -- 79
2019-04-29 04:00:00 14.6 5 Este 11 Nordeste 0 -- -- 79
2019-04-29 03:00:00 14.7 5 Nordeste 11 Nordeste 0 -- -- 80
2019-04-29 02:00:00 14.7 4 Este 14 Nordeste 0 -- -- 80
2019-04-29 01:00:00 15 5 Este 17 Este 0 -- -- 80
2019-04-29 00:00:00 15.3 6 Este 14 Sudeste 0 -- -- 80
2019-04-28 23:00:00 15.6 6 Sur 17 Sur 0 -- -- 80
2019-04-28 22:00:00 16 5 Sudeste 15 Sur 0 -- -- 80
2019-04-28 21:00:00 15.8 10 Sur 17 Sur 0 -- -- 79
2019-04-28 20:00:00 15.9 10 Sur 21 Sur 0 -- -- 79
2019-04-28 19:00:00 16.3 10 Sur 23 Sur 0 -- -- 76
2019-04-28 18:00:00 16.8 12 Sur 25 Sur 0 -- -- 74
2019-04-28 17:00:00 17.4 13 Sur 26 Sur 0 -- -- 71
2019-04-28 16:00:00 17.3 13 Sur 24 Sur 0 -- -- 73
2019-04-28 15:00:00 18 13 Sur 24 Sudoeste 0 -- -- 69
2019-04-28 14:00:00 18.2 12 Sur 22 Sudoeste 0 -- -- 71
2019-04-28 13:00:00 18.5 12 Sur 23 Sur 0 -- -- 74
2019-04-28 12:00:00 17.8 8 Sudoeste 14 Sudoeste 0 -- -- 69
2019-04-28 11:00:00 17.7 6 Sur 9 Sur 0 -- -- 61
2019-04-28 10:00:00 17.7 4 Este 9 Este 0 -- -- 59
2019-04-28 09:00:00 15.9 4 Nordeste 8 Nordeste 0 -- -- 59
2019-04-28 08:00:00 13.1 2 Nordeste 5 Nordeste 0 -- -- 68
2019-04-28 07:00:00 11.7 3 Norte 6 Noroeste 0 -- -- 70
2019-04-28 06:00:00 11.8 4 Norte 7 Nordeste 0 -- -- 72
2019-04-28 05:00:00 12.5 5 Norte 9 Norte 0 -- -- 70
2019-04-28 04:00:00 12.9 3 Norte 6 Nordeste 0 -- -- 68
2019-04-28 03:00:00 13.4 3 Norte 5 Nordeste 0 -- -- 66
2019-04-28 02:00:00 14 0 Calma 5 Norte 0 -- -- 62
2019-04-28 01:00:00 14.7 3 Norte 7 Norte 0 -- -- 57
2019-04-28 00:00:00 16.1 2 Noroeste 7 Noroeste 0 -- -- 53
2019-04-27 23:00:00 16.6 0 Calma 11 Sur 0 -- -- 57
2019-04-27 22:00:00 17.1 4 Sudoeste 15 Sudoeste 0 -- -- 53
2019-04-27 21:00:00 18.1 6 Sudoeste 18 Sudoeste 0 -- -- 40
2019-04-27 20:00:00 18.8 6 Sudoeste 19 Sudoeste 0 -- -- 43
2019-04-27 19:00:00 19.8 10 Sudoeste 28 Sudoeste 0 -- -- 37
2019-04-27 18:00:00 20.3 12 Sudoeste 33 Sudoeste 0 -- -- 36
2019-04-27 17:00:00 22 6 Oeste 30 Sudoeste 0 -- -- 32
2019-04-27 16:00:00 22.3 11 Sudoeste 34 Oeste 0 -- -- 32
2019-04-27 15:00:00 21.9 14 Sudoeste 33 Sudoeste 0 -- -- 34
2019-04-27 14:00:00 19.7 14 Sur 27 Sur 0 -- -- 55
2019-04-27 13:00:00 19.7 8 Sur 18 Sudoeste 0 -- -- 59
2019-04-27 12:00:00 18.7 9 Sur 14 Sur 0 -- -- 59
2019-04-27 11:00:00 17.2 7 Sur 11 Sur 0 -- -- 62
2019-04-27 10:00:00 16.3 5 Sudeste 10 Sudeste 0 -- -- 60
2019-04-27 09:00:00 16.7 0 Calma 7 Nordeste 0 -- -- 53
2019-04-27 08:00:00 12.4 2 Nordeste 8 Nordeste 0 -- -- 66
2019-04-27 07:00:00 11.3 3 Norte 6 Norte 0 -- -- 69
2019-04-27 06:00:00 11.2 3 Norte 6 Nordeste 0 -- -- 71
2019-04-27 05:00:00 11.6 4 Norte 6 Norte 0 -- -- 64
2019-04-27 04:00:00 11.6 3 Norte 5 Norte 0 -- -- 60
2019-04-27 03:00:00 12.4 4 Norte 6 Noroeste 0 -- -- 58
2019-04-27 02:00:00 13.2 4 Norte 6 Norte 0 -- -- 57
2019-04-27 01:00:00 13.5 0 Calma 6 Norte 0 -- -- 54
2019-04-27 00:00:00 14.7 3 Norte 9 Nordeste 0 -- -- 49
2019-04-26 23:00:00 15.9 0 Calma 9 Oeste 0 -- -- 46
2019-04-26 22:00:00 17.3 5 Oeste 10 Noroeste 0 -- -- 39
2019-04-26 21:00:00 18.3 0 Calma 9 Norte 0 -- -- 35
2019-04-26 20:00:00 19.5 5 Norte 23 Norte 0 -- -- 34
2019-04-26 19:00:00 19.9 13 Norte 28 Norte 0 -- -- 32
2019-04-26 18:00:00 20.1 12 Norte 31 Noroeste 0 -- -- 32
2019-04-26 17:00:00 20.9 6 Norte 28 Oeste 0 -- -- 30
2019-04-26 16:00:00 21.6 7 Oeste 27 Norte 0 -- -- 29
2019-04-26 15:00:00 21.4 9 Norte 26 Noroeste 0 -- -- 31
2019-04-26 14:00:00 20.6 9 Noroeste 27 Oeste 0 -- -- 31
2019-04-26 13:00:00 21.1 3 Este 24 Nordeste 0 -- -- 37
2019-04-26 12:00:00 19.9 6 Norte 19 Noroeste 0 -- -- 39
2019-04-26 11:00:00 19.2 5 Nordeste 27 Nordeste 0 -- -- 41
2019-04-26 10:00:00 19 9 Noroeste 21 Noroeste 0 -- -- 43
2019-04-26 09:00:00 17.4 9 Noroeste 20 Norte 0 -- -- 51
2019-04-26 08:00:00 15.3 4 Noroeste 11 Noroeste 0 -- -- 64
2019-04-26 07:00:00 13.7 2 Noroeste 6 Oeste 0 -- -- 63
2019-04-26 06:00:00 14.3 0 Calma 9 Oeste 0 -- -- 58
2019-04-26 05:00:00 15.6 0 Calma 19 Noroeste 0 -- -- 52
2019-04-26 04:00:00 16.1 2 Sudoeste 21 Oeste 0 -- -- 53
2019-04-26 03:00:00 16.6 4 Sudoeste 21 Sudoeste 0 -- -- 57
2019-04-26 02:00:00 16.7 5 Sudoeste 14 Oeste 0 -- -- 69
2019-04-26 01:00:00 16.2 4 Sur 12 Sudoeste 0 -- -- 79
2019-04-26 00:00:00 15.8 2 Oeste 12 Sudoeste 0 -- -- 82
2019-04-25 23:00:00 16.1 3 Sudoeste 10 Sudoeste 0 -- -- 82
2019-04-25 22:00:00 16.1 4 Sudoeste 10 Sudoeste 0 -- -- 83
2019-04-25 21:00:00 16.6 5 Sudoeste 17 Oeste 0 -- -- 80
2019-04-25 20:00:00 16.9 6 Sudoeste 23 Sudoeste 0 -- -- 77
2019-04-25 19:00:00 17.1 7 Sudoeste 27 Sur 0 -- -- 77
2019-04-25 18:00:00 17 14 Sur 27 Sudoeste 0 -- -- 77
2019-04-25 17:00:00 16.8 9 Sur 25 Sur 0 -- -- 78
2019-04-25 16:00:00 16.8 11 Sur 28 Sudoeste 0 -- -- 77
2019-04-25 15:00:00 16.9 15 Sur 32 Sudoeste 0 -- -- 76
2019-04-25 14:00:00 16.9 19 Sur 29 Sur 0 -- -- 76
2019-04-25 13:00:00 17 10 Sur 20 Sudoeste 0 -- -- 75
2019-04-25 12:00:00 17.1 9 Sur 22 Sur 0 -- -- 75
2019-04-25 11:00:00 17.1 10 Sur 22 Sur 0 -- -- 74
2019-04-25 10:00:00 16.8 12 Sur 21 Sur 0 -- -- 73
2019-04-25 09:00:00 16.6 9 Sur 22 Sur 0 -- -- 74
2019-04-25 08:00:00 16.4 9 Sur 19 Sur 0 -- -- 74
2019-04-25 07:00:00 16.1 8 Sur 16 Sur 0 -- -- 77
2019-04-25 06:00:00 16 10 Sur 23 Sur 0 -- -- 77
2019-04-25 05:00:00 15.8 10 Sur 24 Sur 0 -- -- 77
2019-04-25 04:00:00 15.7 10 Sur 22 Sur 0 -- -- 77
2019-04-25 03:00:00 15.7 10 Sur 23 Sur 0 -- -- 79
2019-04-25 02:00:00 15.7 12 Sur 29 Sur 0 -- -- 80
2019-04-25 01:00:00 15.6 11 Sur 25 Sur 0 -- -- 78
2019-04-25 00:00:00 15.6 12 Sur 29 Sur 0 -- -- 77
2019-04-24 23:00:00 15.7 18 Sur 32 Sur 0 -- -- 77
2019-04-24 22:00:00 15.9 18 Sur 31 Sur 0 -- -- 76
2019-04-24 21:00:00 16 15 Sur 27 Sur 0 -- -- 72
2019-04-24 20:00:00 16 16 Sur 27 Sudoeste 0 -- -- 67
2019-04-24 19:00:00 16.6 11 Sur 28 Sudoeste 0 -- -- 67
2019-04-24 18:00:00 16.8 17 Sur 31 Sudoeste 0 -- -- 60
2019-04-24 17:00:00 17.2 18 Sur 32 Sudoeste 0 -- -- 54
2019-04-24 16:00:00 17.4 16 Sur 32 Sur 0 -- -- 54
2019-04-24 15:00:00 17.5 16 Sur 30 Sur 0 -- -- 50
2019-04-24 14:00:00 17.7 14 Sur 28 Sudoeste 0 -- -- 47
2019-04-24 13:00:00 17.8 8 Sudoeste 27 Sudoeste 0 -- -- 48
2019-04-24 12:00:00 17.3 14 Sudoeste 31 Sudoeste 0 -- -- 46
2019-04-24 11:00:00 17.5 12 Sudoeste 33 Sudoeste 0 -- -- 44
2019-04-24 10:00:00 16.9 10 Sudoeste 33 Oeste 0 -- -- 44
2019-04-24 09:00:00 15.9 9 Sudoeste 30 Oeste 0 -- -- 51
2019-04-24 08:00:00 14.8 10 Sudoeste 29 Sudoeste 0 -- -- 57
2019-04-24 07:00:00 14 6 Oeste 19 Oeste 0 -- -- 59
2019-04-24 06:00:00 14.1 3 Sudoeste 15 Oeste 0 -- -- 60
2019-04-24 05:00:00 14.3 4 Sudoeste 21 Sudoeste 0 -- -- 60
2019-04-24 04:00:00 15.3 9 Sudoeste 43 Sur 0 -- -- 73
2019-04-24 03:00:00 15.6 22 Sur 43 Sudoeste 1.8 -- -- 77
2019-04-24 02:00:00 16.1 24 Sur 43 Sur 0 -- -- 73
2019-04-24 01:00:00 16.1 21 Sur 39 Sudoeste 0 -- -- 77
2019-04-24 00:00:00 16.3 18 Sur 35 Sur 0 -- -- 77
2019-04-23 23:00:00 16.3 15 Sur 28 Sur 0 -- -- 82
2019-04-23 22:00:00 16.3 12 Sudoeste 33 Sudoeste 0 -- -- 81
2019-04-23 21:00:00 16.4 9 Sudoeste 22 Sudoeste 0 -- -- 80
2019-04-23 20:00:00 17 7 Sudoeste 32 Sudoeste 0 -- -- 75
2019-04-23 19:00:00 17 13 Sur 30 Sudoeste 0 -- -- 79
2019-04-23 18:00:00 17.5 12 Sur 31 Sur 0 -- -- 77
2019-04-23 17:00:00 17.8 14 Sur 32 Sur 0 -- -- 75
2019-04-23 16:00:00 18 14 Sur 26 Sur 0 -- -- 79
2019-04-23 15:00:00 17.5 14 Sur 23 Sur 0 -- -- 80
2019-04-23 14:00:00 18.3 11 Sur 22 Sudoeste 0 -- -- 77
2019-04-23 13:00:00 18.1 10 Sur 22 Sudoeste 0 -- -- 76
2019-04-23 12:00:00 17.4 11 Sur 17 Sur 0 -- -- 79
2019-04-23 11:00:00 17.2 10 Sur 23 Sur 0 -- -- 76
2019-04-23 10:00:00 16.7 11 Sur 23 Sur 0 -- -- 74
2019-04-23 09:00:00 16.1 6 Sudoeste 14 Sudoeste 0 -- -- 74
2019-04-23 08:00:00 14.7 0 Calma 9 Sudoeste 0 -- -- 79
2019-04-23 07:00:00 14.5 4 Sur 9 Sudoeste 0 -- -- 80
2019-04-23 06:00:00 14.6 5 Sudoeste 15 Oeste 0 -- -- 79
2019-04-23 05:00:00 14.7 0 Calma 11 Sudeste 0 -- -- 77
2019-04-23 04:00:00 14.8 7 Norte 21 Noroeste 0 -- -- 79
2019-04-23 03:00:00 14.9 7 Noroeste 28 Noroeste 0.1 -- -- 86
2019-04-23 02:00:00 15.2 12 Noroeste 24 Norte 0 -- -- 82
2019-04-23 01:00:00 15.9 7 Noroeste 21 Norte 0 -- -- 79
2019-04-23 00:00:00 16.3 13 Noroeste 28 Noroeste 0 -- -- 79